AirNav   Pilot Getaways
 
airports navaids fix Aviation Fuel airboss pilotshop
 874 users online  

83R Glen Beicker Ranch Airport
Seguin, Texas, USA

GOING TO SEGUIN?

Reserve a HOTEL Rent a CAR Rent from ENTERPRISE

FAA INFORMATION EFFECTIVE 07 MAY 2009

Location

FAA Identifier: 83R
Lat/Long: 29-31-45.8370N / 097-47-18.0030W
29-31.763950N / 097-47.300050W
29.5293992 / -97.7883342
(estimated)
Elevation: 465 ft. / 142 m (estimated)
Variation: 07E (1985)
From city: 10 miles E of SEGUIN, TX
Time zone: UTC -5 (UTC -6 during Standard Time)
Zip code: 78155

Airport Operations

Airport use: Open to the public
Activation date: 04/1974
Sectional chart: SAN ANTONIO
Control tower: no
ARTCC: HOUSTON CENTER
FSS: SAN ANGELO FLIGHT SERVICE STATION
NOTAMs facility: SJT (NOTAM-D service available)
Attendance: CONTINUOUS
Wind indicator: yes
Segmented circle: no

Airport Communications

CTAF: 122.9
WX ASOS at BAZ (17 nm NW): 119.325 (830-629-7979)

Nearby radio navigation aids

VOR radial/distance  VOR name  Freq  Var
RNDr080/25.9RANDOLPH VORTAC112.3009E
SATr093/35.8SAN ANTONIO VORTAC116.8008E
SSFr056/(37.9)STINSON VOR108.4009E

 
NDB name  Hdg/Dist  Freq  Var  ID
YOAKUM285/36.435006EOKT --- -.- -

Airport Services

Parking: tiedowns
Airframe service: MAJOR
Powerplant service: MAJOR

Runway Information

Runway 17/35

Dimensions: 1950 x 50 ft. / 594 x 15 m
Surface: turf, in good condition
RUNWAY 17  RUNWAY 35
Traffic pattern: leftleft
Obstructions: 35 ft. trees, 500 ft. from runway, 14:1 slope to clear16 ft. tree, 100 ft. from runway, 110 ft. right of centerline, 6:1 slope to clear

Airport Ownership and Management from official FAA records

Ownership: Privately-owned
Owner: R. G. BEICKER
700 GUS BEICKER ROAD
SEGUIN, TX 78155
Phone 830-303-1829
Manager: R G BEICKER
700 GUS BEICKER ROAD
SEGUIN, TX 78155
Phone 830-303-1829

Additional Remarks

DEER ON & INVOF RY.
GRASS ROOTS FLYING.

Instrument Procedures

There are no published instrument procedures at 83R.

Some nearby airports with instrument procedures:

KBAZ - New Braunfels Municipal Airport (17 nm NW)
50R - Lockhart Municipal Airport (20 nm N)
KHYI - San Marcos Municipal Airport (22 nm N)
KRND - Randolph Air Force Base (26 nm W)
KSAT - San Antonio International Airport (36 nm W)
 
Loc | Ops | Rwys | IFR | FBO | Links
Com | Nav | Svcs | Stats | Notes

$3.75 $2.84

 
Area around 83R (Glen Beicker Ranch Airport)
 
Road maps at: MapQuest MapPoint Yahoo! Maps Google Rand McNally
Satellite photo at: TerraServer Virtual Earth

 
Aerial photo
No photo
 
Sectional chart
Click on chart to expand
Sectional chart courtesy of SkyVector.com

 
Airport distance calculator
Flying to Glen Beicker Ranch Airport? Find the distance to fly.

From to 83R

Sunrise and sunset
Times for 20-Jun-2009
 Local
(UTC-5)
 Zulu
(UTC)
Morning civil twilight06:0511:05
Sunrise06:3211:32
Sunset20:3301:33
Evening civil twilight21:0002:00

Current date and time
Zulu (UTC)  20-Jun-2009 23:55:54
Local (UTC-5)  20-Jun-2009 18:55:54
 
METAR
KBAZ 
18nm NW 
202251Z AUTO 16013G23KT 10SM CLR 37/17 A2978 RMK AO2 SLP072 T03720172 TSNO
KHYI 
22nm N 
202335Z AUTO 17017G22KT 10SM SCT075 36/18 A2977 RMK AO1
KRND 
25nm W 
202255Z AUTO 13013G20KT 10SM SCT070 36/19 A2979 RMK AO2 SLP075 T03630188 $
TAF
NOTAMs
Click for the latest NOTAMs
NOTAMs are issued by the DoD/FAA and will open in a separate window not controlled by AirNav.

 

 
 

Where to Stay: Hotels, Motels, Resorts, B&Bs, Campgrounds

 In this space we feature lodging establishments that are convenient to the Glen Beicker Ranch Airport. If your hotel/inn/B&B/resort is near the Glen Beicker Ranch Airport, provides convenient transportation, or is otherwise attractive to pilots, flight crews, and airport users, consider listing it here.  
Feature A Hotel
 

Hotels in other cities near Glen Beicker Ranch Airport

7 in Seguin
 

Would you like to see your business listed on this page?

 If your business provides an interesting product or service to pilots, flight crews, aircraft, or users of the Glen Beicker Ranch Airport, you should consider listing it here.  To start the listing process, click on the button below
 
Add a business
 

Other Pages about Glen Beicker Ranch Airport

Update a link
 
Copyright © AirNav, LLC. All rights reserved. Privacy Policy  Contact